Ana Sayfa
METAR-TAF:

METAR-TAF

Havaalanları :

Duşanbe, Tacikistan

Enlem: 38-33N, Boylam: 068-47E, yükseklik: 803 m

Güncel hava durumu gözlemi

Rapor saat 23:00 UTC de 33 dakika önce yapıldı.
Rüzgar kuzeydan 4 kt
Sıcaklık 4°C
Nem 93%
Basınç 1024 hPa
Görüş mesafesi 10 km veya daha fazla

METAR: UTDD 202300Z 36002MPS 9999 NSC 04/03 Q1024 R09/19//60 NOSIG RMK QFE699/0933

Saat: 04:33 (23:33 UTC)

Tahmin

Rapor saat 21:00 UTC de 2 saat ve 33 dakika önce yapıldı.
Ayın 20'si saat 22 UTC'den ayın 21'si saat 10 UTC'ye kadar geçerli Tahmin
Rüzgar değişken yönden 4 kt
Görüş mesafesi: 3100 m
1100 ft yükseklikte parçalı bulutlu
3000 ft yükseklikte parçalı bulutlu, Kümülonimbus.
Pus, Duman
Dönüşüyor
ayın 21'si saat 01 UTC'den ayın 21'si saat 03 UTC'ye kadar
Görüş mesafesi: 1000 m
Pus, Duman

TAF: UTDD 202100Z 2022/2110 VRB02MPS 3100 BR FU SCT011 SCT030CB BECMG 2101/2103 1000 BR FU

4.000'den fazla havaalanı için hava durumu gözlemleri ve tahminleri (METAR ve TAF raporları).

Kullanılabilir istasyonlar harita üzerinde sarı ve kırmızı noktalarla gösterilir.

İstasyonun adını görmek için fareyi noktanın üzerinde gezdirin.

Sonrasında hava gözlem ve tahminlerini görmek için tıklayın.

Haritayı değiştirmek için: yaklaştırmak için siyah artı işaretli yeşil düğmeye ve uzaklaştırmak için de eksi işaretli düğmeye hızla tıklayın; bitişik haritalar için yeşil okları kullanın.


METAR-TAF: